Menu Close Menu
Station Historical Data
Daily Summary for April 14, 2017 Units:  English    Metric   Both
« Previous Day
Next Day »
Daily Weekly Monthly Yearly Custom
  High: Low: Average:
Temperature: 81.8 °F 60.5 °F 69 °F
Dew Point: 59.8 °F 51.3 °F 55.4 °F
Humidity: 86% 36% 64%
Wind Speed: 1.0mph 0.0mph 0mph
Wind Gust: 5.0mph - -
Wind- - NNW
Pressure: 30.32 in 30.21 in -
Precipitation: 0.00 in    
Historical Graphs
 
 
Tabular Data for April 14, 2017
Time Temperature Dew Point Pressure Wind Wind Speed Wind Gust Humidity Rainfall Rate (Hourly) solar Conditions
00:00 64.3 °F 55.1 °F 30.23 in Calm     72% 0.00 in WeatherDisplay:10.37 W/m2 CLR
00:15 63.8 °F 55.0 °F 30.23 in Calm     73% 0.00 in WeatherDisplay:10.37 W/m2 CLR
00:30 63.5 °F 55.4 °F 30.23 in Calm     75% 0.00 in WeatherDisplay:10.37 W/m2 CLR
00:45 63.0 °F 55.3 °F 30.23 in Calm     76% 0.00 in WeatherDisplay:10.37 W/m2 CLR
01:00 62.8 °F 55.5 °F 30.23 in Calm     77% 0.00 in WeatherDisplay:10.37 W/m2 CLR
01:15 63.2 °F 56.2 °F 30.23 in Calm     78% 0.00 in WeatherDisplay:10.37 W/m2 CLR
01:30 63.4 °F 56.1 °F 30.23 in Calm     77% 0.00 in WeatherDisplay:10.37 W/m2 CLR
01:45 63.5 °F 56.2 °F 30.22 in Calm     77% 0.00 in WeatherDisplay:10.37 W/m2 CLR
02:00 63.1 °F 55.7 °F 30.22 in Calm     77% 0.00 in WeatherDisplay:10.37 W/m2 CLR
02:15 62.4 °F 55.5 °F 30.22 in Calm     78% 0.00 in WeatherDisplay:10.37 W/m2 CLR
02:30 62.0 °F 55.4 °F 30.22 in Calm     79% 0.00 in WeatherDisplay:10.37 W/m2 CLR
02:45 61.8 °F 55.6 °F 30.22 in Calm     80% 0.00 in WeatherDisplay:10.37 W/m2 CLR
03:00 61.6 °F 55.7 °F 30.22 in Calm     81% 0.00 in WeatherDisplay:10.37 W/m2 CLR
03:15 61.5 °F 55.6 °F 30.22 in Calm     81% 0.00 in WeatherDisplay:10.37 W/m2 CLR
03:30 61.5 °F 56.0 °F 30.22 in Calm     82% 0.00 in WeatherDisplay:10.37 W/m2 CLR
03:45 61.3 °F 55.4 °F 30.22 in Calm     81% 0.00 in WeatherDisplay:10.37 W/m2 CLR
04:00 61.3 °F 55.4 °F 30.22 in Calm     81% 0.00 in WeatherDisplay:10.37 W/m2 CLR
04:15 61.3 °F 55.4 °F 30.22 in Calm     81% 0.00 in WeatherDisplay:10.37 W/m2 CLR
04:30 61.3 °F 55.4 °F 30.22 in Calm     81% 0.00 in WeatherDisplay:10.37 W/m2 CLR
04:45 61.3 °F 55.4 °F 30.22 in Calm     81% 0.00 in WeatherDisplay:10.37 W/m2 CLR
05:00 61.3 °F 55.4 °F 30.23 in Calm     81% 0.00 in WeatherDisplay:10.37 W/m2 CLR
05:15 61.3 °F 55.4 °F 30.23 in Calm     81% 0.00 in WeatherDisplay:10.37 W/m2 CLR
05:30 61.3 °F 55.4 °F 30.23 in Calm     81% 0.00 in WeatherDisplay:10.37 W/m2 CLR
05:45 61.3 °F 55.4 °F 30.23 in Calm     81% 0.00 in WeatherDisplay:10.37 W/m2 CLR
06:00 61.3 °F 55.4 °F 30.24 in Calm     81% 0.00 in WeatherDisplay:10.37 W/m2 CLR
06:15 61.3 °F 55.4 °F 30.24 in Calm     81% 0.00 in WeatherDisplay:10.37 W/m2 CLR
06:30 61.3 °F 55.4 °F 30.25 in Calm     81% 0.00 in WeatherDisplay:10.37 W/m2 CLR
06:45 61.3 °F 55.4 °F 30.25 in Calm     81% 0.00 in WeatherDisplay:10.37 W/m2 CLR
07:00 61.3 °F 55.4 °F 30.25 in Calm     81% 0.00 in WeatherDisplay:10.37 W/m2 CLR
07:15 61.3 °F 55.4 °F 30.26 in Calm     81% 0.00 in WeatherDisplay:10.37 W/m2 CLR
07:30 61.3 °F 55.4 °F 30.27 in Calm     81% 0.00 in WeatherDisplay:10.37 W/m2 CLR
07:45 61.3 °F 55.4 °F 30.27 in Calm     81% 0.00 in WeatherDisplay:10.37 W/m2 CLR
08:00 61.3 °F 55.4 °F 30.28 in Calm     81% 0.00 in WeatherDisplay:10.37 W/m2 CLR
08:15 61.3 °F 55.4 °F 30.29 in Calm     81% 0.00 in WeatherDisplay:10.37 W/m2 CLR
08:30 61.3 °F 55.4 °F 30.29 in Calm     81% 0.00 in WeatherDisplay:10.37 W/m2 CLR
08:45 60.5 °F 56.3 °F 30.29 in Calm     86% 0.00 in WeatherDisplay:10.37 W/m2 CLR
09:00 61.2 °F 56.3 °F 30.30 in Calm     84% 0.00 in WeatherDisplay:10.37 W/m2 CLR
09:15 62.2 °F 57.3 °F 30.30 in Calm     84% 0.00 in WeatherDisplay:10.37 W/m2 CLR
09:30 63.2 °F 58.0 °F 30.30 in Calm     83% 0.00 in WeatherDisplay:10.37 W/m2 CLR
09:45 64.3 °F 58.7 °F 30.30 in Calm     82% 0.00 in WeatherDisplay:10.37 W/m2 CLR
10:00 65.3 °F 59.4 °F 30.30 in Calm     81% 0.00 in WeatherDisplay:10.37 W/m2 CLR
10:15 66.9 °F 58.7 °F 30.31 in Calm     75% 0.00 in WeatherDisplay:10.37 W/m2 CLR
10:30 67.6 °F 58.7 °F 30.31 in Calm   1.0 mph 73% 0.00 in WeatherDisplay:10.37 W/m2 CLR
10:45 68.5 °F 57.9 °F 30.31 in Calm     69% 0.00 in WeatherDisplay:10.37 W/m2 CLR
11:00 69.4 °F 58.8 °F 30.31 in Calm     69% 0.00 in WeatherDisplay:10.37 W/m2 CLR
11:15 70.3 °F 57.5 °F 30.32 in Calm   1.0 mph 64% 0.00 in WeatherDisplay:10.37 W/m2 CLR
11:30 71.5 °F 57.8 °F 30.32 in Calm   1.0 mph 62% 0.00 in WeatherDisplay:10.37 W/m2 CLR
11:45 72.2 °F 57.1 °F 30.32 in Calm   1.0 mph 59% 0.00 in WeatherDisplay:10.37 W/m2 CLR
12:00 73.2 °F 57.5 °F 30.32 in Calm   1.0 mph 58% 0.00 in WeatherDisplay:10.37 W/m2 CLR
12:15 72.8 °F 57.2 °F 30.31 in Calm   1.0 mph 58% 0.00 in WeatherDisplay:10.37 W/m2 CLR
12:30 72.9 °F 56.8 °F 30.31 in Calm     57% 0.00 in WeatherDisplay:10.37 W/m2 CLR
12:45 72.8 °F 57.6 °F 30.30 in Calm     59% 0.00 in WeatherDisplay:10.37 W/m2 CLR
13:00 73.0 °F 58.3 °F 30.30 in Calm     60% 0.00 in WeatherDisplay:10.37 W/m2 CLR
13:15 73.5 °F 58.3 °F 30.29 in Calm   2.0 mph 59% 0.00 in WeatherDisplay:10.37 W/m2 CLR
13:30 74.6 °F 59.8 °F 30.29 in Calm   2.0 mph 60% 0.00 in WeatherDisplay:10.37 W/m2 CLR
13:45 77.8 °F 58.8 °F 30.28 in NW 1.0 mph 2.0 mph 52% 0.00 in WeatherDisplay:10.37 W/m2 CLR
14:00 80.5 °F 58.4 °F 30.27 in Calm   2.0 mph 47% 0.00 in WeatherDisplay:10.37 W/m2 CLR
14:15 81.8 °F 56.5 °F 30.27 in Calm   2.0 mph 42% 0.00 in WeatherDisplay:10.37 W/m2 CLR
14:30 81.7 °F 55.1 °F 30.26 in Calm   2.0 mph 40% 0.00 in WeatherDisplay:10.37 W/m2 CLR
14:45 81.2 °F 55.9 °F 30.25 in Calm   2.0 mph 42% 0.00 in WeatherDisplay:10.37 W/m2 CLR
15:00 81.0 °F 55.1 °F 30.25 in Calm   5.0 mph 41% 0.00 in WeatherDisplay:10.37 W/m2 CLR
15:15 80.8 °F 52.9 °F 30.24 in Calm   2.0 mph 38% 0.00 in WeatherDisplay:10.37 W/m2 CLR
15:30 79.9 °F 55.4 °F 30.23 in Calm   5.0 mph 43% 0.00 in WeatherDisplay:10.37 W/m2 CLR
15:45 80.5 °F 54.0 °F 30.23 in Calm   3.0 mph 40% 0.00 in WeatherDisplay:10.37 W/m2 CLR
16:00 80.7 °F 52.7 °F 30.22 in Calm   3.0 mph 38% 0.00 in WeatherDisplay:10.37 W/m2 CLR
16:15 80.1 °F 54.2 °F 30.22 in Calm   1.0 mph 41% 0.00 in WeatherDisplay:10.37 W/m2 CLR
16:30 80.3 °F 54.5 °F 30.21 in Calm   1.0 mph 41% 0.00 in WeatherDisplay:10.37 W/m2 CLR
16:45 80.5 °F 51.8 °F 30.21 in North 1.0 mph 2.0 mph 37% 0.00 in WeatherDisplay:10.37 W/m2 CLR
17:00 80.9 °F 51.4 °F 30.21 in NNW 1.0 mph 3.0 mph 36% 0.00 in WeatherDisplay:10.37 W/m2 CLR
17:15 80.8 °F 52.8 °F 30.21 in Calm   1.0 mph 38% 0.00 in WeatherDisplay:10.37 W/m2 CLR
17:30 80.7 °F 51.3 °F 30.21 in NNW 1.0 mph 3.0 mph 36% 0.00 in WeatherDisplay:10.37 W/m2 CLR
17:45 80.4 °F 52.5 °F 30.21 in Calm   1.0 mph 38% 0.00 in WeatherDisplay:10.37 W/m2 CLR
18:00 80.1 °F 53.6 °F 30.21 in Calm   1.0 mph 40% 0.00 in WeatherDisplay:10.37 W/m2 CLR
18:15 79.1 °F 53.4 °F 30.21 in Calm   1.0 mph 41% 0.00 in WeatherDisplay:10.37 W/m2 CLR
18:30 78.4 °F 53.4 °F 30.21 in Calm   2.0 mph 42% 0.00 in WeatherDisplay:10.37 W/m2 CLR
18:45 78.2 °F 52.6 °F 30.21 in Calm   1.0 mph 41% 0.00 in WeatherDisplay:10.37 W/m2 CLR
19:00 77.4 °F 52.5 °F 30.21 in Calm     42% 0.00 in WeatherDisplay:10.37 W/m2 CLR
19:15 76.8 °F 52.6 °F 30.21 in Calm     43% 0.00 in WeatherDisplay:10.37 W/m2 CLR
19:30 76.0 °F 53.1 °F 30.21 in Calm     45% 0.00 in WeatherDisplay:10.37 W/m2 CLR
19:45 75.2 °F 53.6 °F 30.21 in Calm     47% 0.00 in WeatherDisplay:10.37 W/m2 CLR
20:00 74.3 °F 53.9 °F 30.22 in Calm     49% 0.00 in WeatherDisplay:10.37 W/m2 CLR
20:15 73.3 °F 53.6 °F 30.22 in Calm     50% 0.00 in WeatherDisplay:10.37 W/m2 CLR
20:30 72.4 °F 53.8 °F 30.23 in Calm     52% 0.00 in WeatherDisplay:10.37 W/m2 CLR
20:45 71.5 °F 54.0 °F 30.23 in Calm     54% 0.00 in WeatherDisplay:10.37 W/m2 CLR
21:00 70.6 °F 54.1 °F 30.23 in Calm     56% 0.00 in WeatherDisplay:10.37 W/m2 CLR
21:15 69.8 °F 53.8 °F 30.24 in Calm     57% 0.00 in WeatherDisplay:10.37 W/m2 CLR
21:30 69.2 °F 54.3 °F 30.24 in Calm     59% 0.00 in WeatherDisplay:10.37 W/m2 CLR
21:45 68.4 °F 54.4 °F 30.25 in Calm     61% 0.00 in WeatherDisplay:10.37 W/m2 CLR
22:00 67.6 °F 54.6 °F 30.25 in Calm     63% 0.00 in WeatherDisplay:10.37 W/m2 CLR
22:15 66.8 °F 54.7 °F 30.25 in Calm     65% 0.00 in WeatherDisplay:10.37 W/m2 CLR
22:30 66.4 °F 55.1 °F 30.25 in Calm     67% 0.00 in WeatherDisplay:10.37 W/m2 CLR
22:45 65.9 °F 55.0 °F 30.25 in Calm     68% 0.00 in WeatherDisplay:10.37 W/m2 CLR
23:00 65.4 °F 55.4 °F 30.25 in Calm     70% 0.00 in WeatherDisplay:10.37 W/m2 CLR
23:15 65.0 °F 55.0 °F 30.26 in Calm     70% 0.00 in WeatherDisplay:10.37 W/m2 CLR
23:30 64.3 °F 55.1 °F 30.26 in Calm     72% 0.00 in WeatherDisplay:10.37 W/m2 CLR
23:45 63.7 °F 55.3 °F 30.26 in Calm     74% 0.00 in WeatherDisplay:10.37 W/m2 CLR
Piedmont Bend
Compliments of Weather Underground - 4 mb